createdAt,value
2018-11-14T00:00:28.945Z,76.95
2018-11-14T00:01:03.401Z,71.22
2018-11-14T00:01:38.079Z,78.15
2018-11-14T00:02:12.599Z,88.65
2018-11-14T00:02:47.281Z,80.70
2018-11-14T00:03:21.799Z,75.00
2018-11-14T00:03:56.222Z,77.00
2018-11-14T00:04:30.740Z,82.20
2018-11-14T00:05:05.378Z,70.08
2018-11-14T00:05:39.919Z,79.97
2018-11-14T00:06:14.459Z,75.90
2018-11-14T00:06:49.179Z,76.10
2018-11-14T00:07:23.738Z,88.15
2018-11-14T00:07:58.380Z,70.30
2018-11-14T00:08:32.978Z,77.47
2018-11-14T00:09:10.077Z,76.35
2018-11-14T00:09:44.787Z,67.00
2018-11-14T00:10:19.711Z,74.65
2018-11-14T00:10:53.938Z,71.87
2018-11-14T00:11:28.524Z,66.72
2018-11-14T00:12:03.099Z,66.82
2018-11-14T00:12:37.629Z,74.95
2018-11-14T00:13:12.098Z,64.62
2018-11-14T00:13:46.699Z,70.03
2018-11-14T00:14:21.200Z,63.20
2018-11-14T00:14:55.958Z,71.12
2018-11-14T00:15:30.338Z,67.08
2018-11-14T00:16:05.019Z,64.60
2018-11-14T00:16:39.518Z,69.00
2018-11-14T00:17:14.199Z,73.07
2018-11-14T00:17:49.357Z,73.97
2018-11-14T00:18:24.180Z,59.23
2018-11-14T00:18:58.761Z,65.70
2018-11-14T00:19:33.449Z,62.58
2018-11-14T00:20:08.900Z,58.68
2018-11-14T00:20:43.579Z,56.42
2018-11-14T00:21:18.139Z,54.42
2018-11-14T00:21:52.618Z,47.33
2018-11-14T00:22:27.338Z,52.55
2018-11-14T00:23:01.859Z,54.85
2018-11-14T00:23:36.339Z,46.85
2018-11-14T00:24:10.978Z,50.88
2018-11-14T00:24:45.540Z,46.28
2018-11-14T00:25:20.319Z,46.68
2018-11-14T00:25:54.958Z,44.03
2018-11-14T00:26:29.580Z,58.55
2018-11-14T00:27:04.178Z,49.33
2018-11-14T00:27:38.839Z,48.85
2018-11-14T00:28:13.279Z,43.85
2018-11-14T00:28:47.986Z,53.15
2018-11-14T00:29:22.480Z,47.38
2018-11-14T00:29:57.038Z,46.70
2018-11-14T00:30:31.719Z,48.15
2018-11-14T00:31:06.218Z,45.98
2018-11-14T00:31:40.818Z,50.45
2018-11-14T00:32:15.258Z,45.60
2018-11-14T00:32:49.781Z,49.88
2018-11-14T00:33:24.461Z,49.33
2018-11-14T00:33:58.978Z,51.10
2018-11-14T00:34:33.581Z,49.70
2018-11-14T00:35:08.606Z,54.63
2018-11-14T00:35:43.337Z,51.23
2018-11-14T00:36:17.838Z,50.98
2018-11-14T00:36:52.441Z,53.98
2018-11-14T00:37:26.957Z,56.88
2018-11-14T00:38:01.620Z,57.45
2018-11-14T00:38:36.080Z,49.30
2018-11-14T00:39:11.922Z,53.08
2018-11-14T00:39:46.519Z,52.95
2018-11-14T00:40:21.638Z,48.40
2018-11-14T00:40:56.178Z,50.78
2018-11-14T00:41:30.838Z,47.73
2018-11-14T00:42:05.539Z,44.03
2018-11-14T00:42:40.319Z,46.08
2018-11-14T00:43:15.018Z,46.90
2018-11-14T00:43:49.738Z,46.77
2018-11-14T00:44:24.180Z,44.18
2018-11-14T00:44:58.940Z,42.23
2018-11-14T00:45:33.566Z,41.75
2018-11-14T00:46:08.162Z,43.20
2018-11-14T00:46:42.699Z,35.20
2018-11-14T00:47:17.279Z,39.20
2018-11-14T00:47:52.163Z,38.75
2018-11-14T00:48:26.838Z,43.65
2018-11-14T00:49:01.219Z,44.30
2018-11-14T00:49:35.744Z,43.35
2018-11-14T00:50:11.219Z,43.30
2018-11-14T00:50:45.798Z,43.98
2018-11-14T00:51:20.381Z,40.28
2018-11-14T00:51:54.958Z,36.80
2018-11-14T00:52:29.486Z,39.67
2018-11-14T00:53:04.019Z,43.98
2018-11-14T00:53:38.625Z,39.23
2018-11-14T00:54:13.267Z,41.20
2018-11-14T00:54:47.939Z,44.40
2018-11-14T00:55:23.362Z,39.95
2018-11-14T00:55:57.998Z,43.68
2018-11-14T00:56:32.479Z,45.00
2018-11-14T00:57:07.087Z,40.55
2018-11-14T00:57:42.238Z,42.45
2018-11-14T00:58:16.838Z,42.53
2018-11-14T00:58:51.458Z,41.33
2018-11-14T00:59:26.059Z,44.70
2018-11-14T01:00:00.623Z,41.37
2018-11-14T01:00:35.158Z,40.75
2018-11-14T01:01:09.599Z,39.33
2018-11-14T01:01:44.204Z,40.65
2018-11-14T01:02:18.941Z,41.50
2018-11-14T01:02:53.639Z,45.25
2018-11-14T01:03:28.238Z,39.63
2018-11-14T01:04:02.860Z,41.55
2018-11-14T01:04:37.458Z,40.35
2018-11-14T01:05:12.998Z,44.67
2018-11-14T01:05:47.559Z,42.60
2018-11-14T01:06:22.099Z,45.83
2018-11-14T01:06:56.679Z,45.08
2018-11-14T01:07:31.341Z,43.30
2018-11-14T01:08:06.079Z,45.63
2018-11-14T01:08:40.458Z,37.78
2018-11-14T01:09:15.199Z,43.78
2018-11-14T01:09:49.861Z,47.93
2018-11-14T01:10:24.498Z,45.78
2018-11-14T01:10:59.059Z,49.25
2018-11-14T01:11:33.599Z,44.05
2018-11-14T01:12:08.246Z,42.23
2018-11-14T01:12:42.941Z,44.83
2018-11-14T01:13:17.680Z,41.98
2018-11-14T01:13:52.158Z,51.68
2018-11-14T01:14:26.740Z,48.70
2018-11-14T01:15:01.286Z,49.00
2018-11-14T01:15:35.799Z,44.77
2018-11-14T01:16:10.418Z,50.92
2018-11-14T01:16:45.118Z,52.03
2018-11-14T01:17:19.800Z,46.37
2018-11-14T01:17:54.426Z,55.75
2018-11-14T01:18:28.957Z,43.63
2018-11-14T01:19:03.639Z,50.10
2018-11-14T01:19:38.299Z,55.92
2018-11-14T01:20:14.706Z,58.40
2018-11-14T01:20:49.179Z,71.07
2018-11-14T01:21:23.766Z,47.48
2018-11-14T01:21:58.358Z,53.80
2018-11-14T01:22:32.879Z,53.87
2018-11-14T01:23:07.538Z,45.78
2018-11-14T01:23:42.158Z,54.08
2018-11-14T01:24:16.723Z,49.55
2018-11-14T01:24:51.280Z,44.48
2018-11-14T01:25:25.846Z,46.28
2018-11-14T01:26:00.406Z,54.20
2018-11-14T01:26:35.159Z,49.80
2018-11-14T01:27:09.758Z,46.15
2018-11-14T01:27:44.777Z,51.73
2018-11-14T01:28:19.278Z,47.83
2018-11-14T01:28:53.898Z,46.42
2018-11-14T01:29:28.579Z,48.38
2018-11-14T01:30:03.187Z,44.93
2018-11-14T01:30:37.778Z,49.83
2018-11-14T01:31:12.559Z,50.70
2018-11-14T01:31:46.991Z,30.80
2018-11-14T01:32:21.698Z,38.20
2018-11-14T01:32:56.319Z,39.73
2018-11-14T01:33:31.020Z,37.85
2018-11-14T01:34:05.521Z,40.43
2018-11-14T01:34:40.098Z,40.92
2018-11-14T01:35:15.277Z,36.45
2018-11-14T01:35:49.826Z,34.13
2018-11-14T01:36:24.440Z,33.48
2018-11-14T01:36:58.918Z,35.52
2018-11-14T01:37:33.479Z,29.77
2018-11-14T01:38:08.118Z,28.12
2018-11-14T01:38:42.558Z,33.78
2018-11-14T01:39:17.239Z,27.27
2018-11-14T01:39:51.778Z,36.17
2018-11-14T01:40:26.679Z,32.00
2018-11-14T01:41:01.271Z,21.30
2018-11-14T01:41:35.917Z,24.32
2018-11-14T01:42:10.578Z,28.50
2018-11-14T01:42:46.599Z,24.07
2018-11-14T01:43:21.099Z,26.50
2018-11-14T01:43:55.658Z,24.52
2018-11-14T01:44:30.178Z,29.67
2018-11-14T01:45:07.860Z,24.85
2018-11-14T01:45:42.558Z,22.55
2018-11-14T01:46:17.158Z,20.62
2018-11-14T01:46:51.559Z,22.70
2018-11-14T01:47:26.158Z,23.52
2018-11-14T01:48:00.778Z,21.87
2018-11-14T01:48:35.359Z,21.85
2018-11-14T01:49:10.638Z,19.92
2018-11-14T01:49:45.137Z,21.02
2018-11-14T01:50:19.631Z,21.30
2018-11-14T01:50:54.200Z,19.10
2018-11-14T01:51:28.859Z,19.50
2018-11-14T01:52:03.680Z,22.17
2018-11-14T01:52:38.478Z,20.37
2018-11-14T01:53:13.019Z,20.70
2018-11-14T01:53:47.539Z,19.80
2018-11-14T01:54:22.018Z,19.48
2018-11-14T01:54:56.638Z,17.48
2018-11-14T01:55:31.099Z,19.92
2018-11-14T01:56:05.839Z,17.17
2018-11-14T01:56:40.321Z,16.97
2018-11-14T01:57:14.878Z,17.25
2018-11-14T01:57:49.502Z,22.27
2018-11-14T01:58:24.098Z,18.35
2018-11-14T01:58:58.581Z,17.90
2018-11-14T01:59:33.066Z,20.50
2018-11-14T02:00:10.599Z,20.20
2018-11-14T02:00:45.138Z,19.32
2018-11-14T02:01:19.881Z,17.75
2018-11-14T02:01:54.445Z,22.98
2018-11-14T02:02:29.165Z,20.77
2018-11-14T02:03:03.758Z,22.67
2018-11-14T02:03:38.439Z,22.52
2018-11-14T02:04:12.919Z,17.87
2018-11-14T02:04:47.378Z,17.20
2018-11-14T02:05:21.837Z,21.00
2018-11-14T02:05:56.478Z,17.90
2018-11-14T02:06:30.984Z,18.37
2018-11-14T02:07:05.378Z,17.35
2018-11-14T02:07:39.921Z,16.37
2018-11-14T02:08:14.559Z,18.80
2018-11-14T02:08:49.141Z,17.25
2018-11-14T02:09:23.646Z,15.80
2018-11-14T02:09:58.103Z,18.27
2018-11-14T02:10:32.678Z,17.23
2018-11-14T02:11:07.499Z,16.30
2018-11-14T02:11:42.078Z,17.98
2018-11-14T02:12:16.559Z,19.02
2018-11-14T02:12:51.001Z,19.15
2018-11-14T02:13:25.566Z,17.45
2018-11-14T02:14:00.240Z,14.93
2018-11-14T02:14:34.880Z,14.45
2018-11-14T02:15:11.458Z,15.83
2018-11-14T02:15:45.937Z,14.03
2018-11-14T02:16:20.538Z,16.02
2018-11-14T02:16:54.999Z,18.55
2018-11-14T02:17:29.646Z,16.87
2018-11-14T02:18:04.199Z,20.00
2018-11-14T02:18:38.777Z,19.50
2018-11-14T02:19:13.318Z,18.48
2018-11-14T02:19:48.057Z,25.70
2018-11-14T02:20:22.599Z,15.32
2018-11-14T02:20:57.098Z,15.15
2018-11-14T02:21:31.618Z,14.33
2018-11-14T02:22:06.519Z,16.42
2018-11-14T02:22:41.459Z,17.87
2018-11-14T02:23:16.199Z,17.82
2018-11-14T02:23:50.759Z,15.45
2018-11-14T02:24:25.498Z,15.28
2018-11-14T02:24:59.997Z,18.52
2018-11-14T02:25:35.138Z,12.78
2018-11-14T02:26:09.877Z,13.72
2018-11-14T02:26:44.566Z,14.55
2018-11-14T02:27:19.388Z,18.10
2018-11-14T02:27:53.838Z,16.32
2018-11-14T02:28:28.379Z,16.73
2018-11-14T02:29:03.038Z,15.70
2018-11-14T02:29:37.598Z,17.32
2018-11-14T02:30:17.239Z,15.05
2018-11-14T02:30:51.738Z,19.12
2018-11-14T02:31:26.259Z,14.63
2018-11-14T02:32:00.838Z,15.50
2018-11-14T02:32:35.458Z,17.62
2018-11-14T02:33:10.138Z,17.57
2018-11-14T02:33:44.706Z,19.37
2018-11-14T02:34:19.140Z,17.25
2018-11-14T02:34:53.759Z,18.70
2018-11-14T02:35:28.319Z,16.35
2018-11-14T02:36:02.958Z,17.12
2018-11-14T02:36:37.459Z,15.48
2018-11-14T02:37:12.058Z,15.63
2018-11-14T02:37:46.905Z,17.62
2018-11-14T02:38:21.486Z,15.13
2018-11-14T02:38:55.926Z,14.07
2018-11-14T02:39:30.825Z,17.95
2018-11-14T02:40:06.139Z,17.82
2018-11-14T02:40:40.558Z,17.62
2018-11-14T02:41:15.141Z,17.12
2018-11-14T02:41:49.899Z,17.10
2018-11-14T02:42:24.579Z,19.52
2018-11-14T02:42:59.198Z,19.87
2018-11-14T02:43:33.726Z,17.12
2018-11-14T02:44:08.439Z,19.48
2018-11-14T02:44:43.022Z,14.70
2018-11-14T02:45:17.598Z,18.20
2018-11-14T02:45:52.294Z,14.90
2018-11-14T02:46:27.081Z,14.35
2018-11-14T02:47:01.658Z,19.73
2018-11-14T02:47:36.406Z,18.50
2018-11-14T02:48:11.061Z,19.30
2018-11-14T02:48:45.582Z,18.02
2018-11-14T02:49:20.242Z,19.85
2018-11-14T02:49:54.759Z,19.92
2018-11-14T02:50:29.458Z,16.00
2018-11-14T02:51:23.418Z,24.80
2018-11-14T02:51:57.858Z,19.82
2018-11-14T02:52:32.459Z,16.82
2018-11-14T02:53:07.199Z,27.05
2018-11-14T02:53:41.939Z,18.35
2018-11-14T02:54:16.498Z,16.82
2018-11-14T02:54:51.098Z,17.92
2018-11-14T02:55:25.618Z,17.27
2018-11-14T02:56:08.859Z,18.73
2018-11-14T02:56:43.438Z,18.77
2018-11-14T02:57:17.818Z,16.48
2018-11-14T02:57:52.425Z,18.40
2018-11-14T02:58:26.977Z,18.50
2018-11-14T02:59:01.659Z,16.95
2018-11-14T02:59:36.200Z,15.90
2018-11-14T03:00:12.718Z,19.35
2018-11-14T03:00:47.387Z,20.32
2018-11-14T03:01:22.199Z,17.15
2018-11-14T03:01:56.821Z,21.35
2018-11-14T03:02:31.519Z,21.52
2018-11-14T03:03:06.399Z,20.60
2018-11-14T03:03:41.179Z,17.40
2018-11-14T03:04:16.024Z,19.67
2018-11-14T03:04:50.626Z,16.95
2018-11-14T03:05:25.259Z,17.77
2018-11-14T03:05:59.958Z,18.90
2018-11-14T03:06:34.902Z,17.17
2018-11-14T03:07:09.618Z,18.25
2018-11-14T03:07:44.300Z,17.87
2018-11-14T03:08:18.998Z,18.35
2018-11-14T03:08:53.968Z,17.92
2018-11-14T03:09:28.898Z,16.45
2018-11-14T03:10:03.621Z,18.77
2018-11-14T03:10:38.439Z,24.07
2018-11-14T03:11:13.119Z,21.27
2018-11-14T03:11:47.908Z,21.17
2018-11-14T03:12:22.755Z,16.85
2018-11-14T03:12:57.359Z,18.62
2018-11-14T03:13:32.118Z,17.75
2018-11-14T03:14:07.198Z,18.20
2018-11-14T03:14:42.115Z,20.82
2018-11-14T03:15:20.699Z,22.55
2018-11-14T03:15:55.460Z,17.15
2018-11-14T03:16:30.458Z,23.98
2018-11-14T03:17:05.579Z,17.30
2018-11-14T03:17:40.197Z,17.75
2018-11-14T03:18:14.997Z,23.85
2018-11-14T03:18:49.557Z,17.77
2018-11-14T03:19:24.339Z,20.37
2018-11-14T03:19:58.897Z,22.75
2018-11-14T03:20:33.557Z,18.82
2018-11-14T03:21:08.259Z,18.75
2018-11-14T03:21:42.860Z,19.20
2018-11-14T03:22:17.475Z,19.82
2018-11-14T03:22:51.984Z,24.60
2018-11-14T03:23:26.537Z,18.62
2018-11-14T03:24:01.357Z,20.68
2018-11-14T03:24:35.998Z,23.10
2018-11-14T03:25:11.976Z,19.37
2018-11-14T03:25:46.417Z,17.40
2018-11-14T03:26:21.084Z,19.98
2018-11-14T03:26:55.619Z,21.10
2018-11-14T03:27:30.177Z,19.20
2018-11-14T03:28:04.917Z,18.02
2018-11-14T03:28:39.537Z,23.18
2018-11-14T03:29:14.060Z,22.00
2018-11-14T03:29:48.555Z,18.50
2018-11-14T03:30:23.237Z,20.17
2018-11-14T03:30:57.917Z,21.37
2018-11-14T03:31:32.456Z,19.35
2018-11-14T03:32:07.017Z,20.00
2018-11-14T03:32:41.916Z,19.17
2018-11-14T03:33:16.436Z,19.67
2018-11-14T03:33:50.939Z,17.95
2018-11-14T03:34:25.457Z,18.85
2018-11-14T03:35:00.117Z,21.50
2018-11-14T03:35:39.670Z,18.52
2018-11-14T03:36:20.450Z,17.52
2018-11-14T03:36:55.110Z,18.52
2018-11-14T03:37:29.769Z,19.55
2018-11-14T03:38:04.430Z,18.75
2018-11-14T03:38:39.150Z,17.85
2018-11-14T03:39:13.910Z,20.08
2018-11-14T03:39:48.630Z,17.85
2018-11-14T03:40:23.249Z,17.70
2018-11-14T03:40:58.109Z,20.52
2018-11-14T03:41:32.790Z,21.42
2018-11-14T03:42:07.637Z,16.97
2018-11-14T03:42:42.490Z,22.07
2018-11-14T03:43:17.069Z,19.60
2018-11-14T03:43:51.699Z,19.48
2018-11-14T03:44:26.239Z,20.50
2018-11-14T03:45:00.959Z,19.40
2018-11-14T03:45:35.359Z,19.77
2018-11-14T03:46:09.919Z,19.48
2018-11-14T03:46:44.539Z,22.73
2018-11-14T03:47:19.019Z,18.60
2018-11-14T03:47:53.661Z,18.20
2018-11-14T03:48:28.221Z,18.50
2018-11-14T03:49:03.105Z,20.57
2018-11-14T03:49:37.620Z,18.95
2018-11-14T03:50:12.348Z,18.40
2018-11-14T03:50:46.859Z,18.40
2018-11-14T03:51:21.459Z,20.08
2018-11-14T03:51:55.939Z,23.12
2018-11-14T03:52:30.579Z,22.67
2018-11-14T03:53:05.167Z,21.05
2018-11-14T03:53:39.727Z,22.17
2018-11-14T03:54:14.299Z,22.73
2018-11-14T03:54:48.739Z,27.20
2018-11-14T03:55:23.119Z,28.55
2018-11-14T03:55:57.740Z,24.98
2018-11-14T03:56:32.319Z,31.10
2018-11-14T03:57:13.619Z,24.05
2018-11-14T03:57:48.038Z,26.95
2018-11-14T03:58:22.696Z,29.92
2018-11-14T03:58:57.288Z,25.77
2018-11-14T03:59:32.186Z,26.90
2018-11-14T04:00:09.626Z,22.30
2018-11-14T04:00:44.187Z,22.62
2018-11-14T04:01:19.051Z,25.95
2018-11-14T04:01:53.790Z,23.90
2018-11-14T04:02:28.593Z,26.95
2018-11-14T04:03:03.391Z,24.25
2018-11-14T04:03:38.130Z,26.12
2018-11-14T04:04:12.951Z,22.00
2018-11-14T04:04:47.750Z,22.17
2018-11-14T04:05:22.420Z,23.18
2018-11-14T04:05:57.050Z,23.47
2018-11-14T04:06:31.611Z,22.90
2018-11-14T04:07:06.731Z,22.75
2018-11-14T04:07:42.008Z,20.75
2018-11-14T04:08:16.851Z,22.37
2018-11-14T04:08:51.337Z,25.50
2018-11-14T04:09:26.148Z,26.65
2018-11-14T04:10:00.638Z,22.22
2018-11-14T04:10:35.978Z,24.50
2018-11-14T04:11:10.598Z,22.42
2018-11-14T04:11:45.178Z,25.90
2018-11-14T04:12:20.059Z,25.65
2018-11-14T04:12:54.645Z,28.87
2018-11-14T04:13:29.286Z,24.43
2018-11-14T04:14:03.838Z,25.65
2018-11-14T04:14:38.480Z,22.95
2018-11-14T04:15:13.898Z,22.40
2018-11-14T04:15:48.363Z,26.77
2018-11-14T04:16:23.062Z,22.62
2018-11-14T04:16:57.658Z,21.52
2018-11-14T04:17:32.238Z,26.93
2018-11-14T04:18:06.818Z,23.15
2018-11-14T04:18:41.506Z,26.73
2018-11-14T04:19:16.026Z,24.70
2018-11-14T04:19:50.603Z,23.95
2018-11-14T04:20:25.358Z,24.72
2018-11-14T04:20:59.801Z,26.05
2018-11-14T04:21:34.346Z,26.65
2018-11-14T04:22:08.889Z,27.62
2018-11-14T04:22:43.763Z,27.37
2018-11-14T04:23:18.542Z,25.25
2018-11-14T04:23:53.241Z,28.42
2018-11-14T04:24:28.065Z,27.75
2018-11-14T04:25:02.784Z,25.15
2018-11-14T04:25:37.581Z,27.90
2018-11-14T04:26:12.222Z,28.62
2018-11-14T04:26:47.070Z,28.38
2018-11-14T04:27:21.862Z,25.80
2018-11-14T04:27:56.685Z,28.47
2018-11-14T04:28:31.383Z,25.48
2018-11-14T04:29:06.421Z,25.85
2018-11-14T04:29:41.482Z,31.73
2018-11-14T04:30:18.983Z,27.40
2018-11-14T04:30:53.702Z,31.30
2018-11-14T04:31:28.481Z,26.85
2018-11-14T04:32:03.241Z,30.65
2018-11-14T04:32:37.921Z,25.27
2018-11-14T04:33:12.721Z,33.33
2018-11-14T04:33:47.422Z,26.07
2018-11-14T04:34:22.262Z,28.92
2018-11-14T04:34:57.002Z,26.82
2018-11-14T04:35:31.643Z,32.05
2018-11-14T04:36:06.461Z,31.07
2018-11-14T04:36:41.141Z,32.28
2018-11-14T04:37:15.982Z,31.65
2018-11-14T04:37:50.849Z,31.93
2018-11-14T04:38:25.604Z,31.87
2018-11-14T04:39:00.541Z,35.75
2018-11-14T04:39:35.167Z,33.95
2018-11-14T04:40:12.497Z,31.90
2018-11-14T04:40:47.156Z,33.83
2018-11-14T04:41:21.675Z,36.08
2018-11-14T04:41:56.320Z,34.50
2018-11-14T04:42:30.974Z,34.67
2018-11-14T04:43:06.131Z,33.85
2018-11-14T04:43:40.953Z,34.25
2018-11-14T04:44:15.651Z,33.42
2018-11-14T04:44:50.592Z,30.15
2018-11-14T04:45:26.533Z,32.60
2018-11-14T04:46:01.234Z,33.35
2018-11-14T04:46:35.853Z,36.33
2018-11-14T04:47:10.812Z,35.03
2018-11-14T04:47:45.625Z,31.00
2018-11-14T04:48:20.271Z,34.53
2018-11-14T04:48:55.072Z,34.45
2018-11-14T04:49:29.771Z,38.33
2018-11-14T04:50:04.613Z,40.63
2018-11-14T04:50:39.632Z,35.88
2018-11-14T04:51:14.352Z,35.90
2018-11-14T04:51:48.991Z,31.73
2018-11-14T04:52:23.833Z,30.92
2018-11-14T04:52:58.611Z,34.67
2018-11-14T04:53:33.491Z,36.88
2018-11-14T04:54:08.333Z,36.98
2018-11-14T04:54:43.013Z,37.60
2018-11-14T04:55:18.752Z,35.73
2018-11-14T04:55:53.333Z,37.40
2018-11-14T04:56:27.993Z,38.40
2018-11-14T04:57:02.692Z,38.02
2018-11-14T04:57:37.711Z,34.95
2018-11-14T04:58:12.573Z,34.98
2018-11-14T04:58:47.240Z,38.20
2018-11-14T04:59:21.975Z,34.73
2018-11-14T04:59:56.612Z,36.13
2018-11-14T05:00:31.293Z,36.58
2018-11-14T05:01:06.117Z,34.10
2018-11-14T05:01:40.793Z,36.63
2018-11-14T05:02:15.764Z,34.30
2018-11-14T05:02:51.011Z,29.55
2018-11-14T05:03:25.931Z,32.40
2018-11-14T05:04:00.739Z,32.33
2018-11-14T05:04:35.767Z,34.85
2018-11-14T05:05:12.892Z,37.03
2018-11-14T05:05:47.971Z,38.60
2018-11-14T05:06:22.791Z,33.75
2018-11-14T05:06:57.825Z,33.33
2018-11-14T05:07:32.713Z,31.25
2018-11-14T05:08:08.012Z,28.10
2018-11-14T05:08:42.814Z,32.17
2018-11-14T05:09:17.552Z,32.53
2018-11-14T05:09:52.353Z,31.57
2018-11-14T05:10:27.873Z,37.90
2018-11-14T05:11:02.551Z,30.90
2018-11-14T05:11:37.291Z,29.35
2018-11-14T05:12:12.172Z,34.48
2018-11-14T05:12:47.475Z,29.67
2018-11-14T05:13:22.292Z,30.20
2018-11-14T05:13:57.953Z,33.28
2018-11-14T05:14:33.253Z,30.45
2018-11-14T05:15:09.093Z,32.08
2018-11-14T05:15:43.692Z,30.90
2018-11-14T05:16:18.472Z,37.30
2018-11-14T05:16:53.154Z,37.73
2018-11-14T05:17:28.172Z,37.75
2018-11-14T05:18:03.399Z,35.40
2018-11-14T05:18:38.319Z,35.90
2018-11-14T05:19:13.332Z,33.55
2018-11-14T05:19:48.192Z,35.13
2018-11-14T05:20:23.771Z,31.45
2018-11-14T05:20:58.893Z,32.20
2018-11-14T05:21:34.495Z,34.30
2018-11-14T05:22:09.221Z,31.97
2018-11-14T05:22:44.753Z,35.35
2018-11-14T05:23:19.473Z,32.80
2018-11-14T05:23:54.014Z,35.58
2018-11-14T05:24:29.197Z,34.63
2018-11-14T05:25:04.293Z,36.88
2018-11-14T05:25:39.513Z,33.38
2018-11-14T05:26:14.575Z,37.50
2018-11-14T05:26:49.937Z,34.48
2018-11-14T05:27:24.973Z,32.53
2018-11-14T05:27:59.953Z,38.83
2018-11-14T05:28:34.773Z,37.53
2018-11-14T05:29:10.153Z,38.58
2018-11-14T05:29:44.974Z,39.67
2018-11-14T05:30:21.834Z,40.52
2018-11-14T05:30:56.894Z,41.10
2018-11-14T05:31:32.053Z,44.15
2018-11-14T05:32:07.213Z,40.80
2018-11-14T05:32:42.634Z,43.95
2018-11-14T05:33:17.933Z,40.73
2018-11-14T05:33:53.156Z,39.70
2018-11-14T05:34:28.254Z,46.10
2018-11-14T05:35:03.453Z,48.33
2018-11-14T05:35:38.516Z,44.88
2018-11-14T05:36:14.673Z,44.35
2018-11-14T05:36:51.554Z,45.70
2018-11-14T05:37:26.754Z,46.80
2018-11-14T05:38:01.884Z,43.15
2018-11-14T05:38:37.017Z,46.23
2018-11-14T05:39:12.893Z,47.05
2018-11-14T05:39:48.069Z,45.75
2018-11-14T05:40:23.413Z,48.65
2018-11-14T05:40:58.293Z,43.98
2018-11-14T05:41:33.941Z,42.83
2018-11-14T05:42:09.134Z,42.80
2018-11-14T05:42:44.554Z,48.50
2018-11-14T05:43:19.355Z,44.40
2018-11-14T05:43:54.054Z,46.55
2018-11-14T05:44:28.975Z,48.70
2018-11-14T05:45:04.094Z,49.25
2018-11-14T05:45:39.404Z,44.95
2018-11-14T05:46:14.413Z,45.10
2018-11-14T05:46:49.338Z,58.23
2018-11-14T05:47:24.375Z,48.78
2018-11-14T05:47:59.253Z,48.78
2018-11-14T05:48:34.274Z,50.00
2018-11-14T05:49:09.576Z,53.65
2018-11-14T05:49:44.254Z,59.48
2018-11-14T05:50:20.094Z,47.62
2018-11-14T05:50:54.882Z,43.75
2018-11-14T05:51:29.534Z,49.10
2018-11-14T05:52:04.334Z,45.92
2018-11-14T05:52:39.219Z,50.75
2018-11-14T05:53:13.874Z,46.63
2018-11-14T05:53:48.715Z,48.87
2018-11-14T05:54:23.614Z,51.40
2018-11-14T05:54:58.775Z,43.95
2018-11-14T05:55:33.533Z,51.90
2018-11-14T05:56:08.574Z,49.73
2018-11-14T05:56:43.333Z,44.05
2018-11-14T05:57:18.214Z,44.63
2018-11-14T05:57:53.413Z,47.35
2018-11-14T05:58:28.554Z,44.50
2018-11-14T05:59:03.534Z,48.05
2018-11-14T05:59:38.793Z,47.50
2018-11-14T06:00:31.133Z,46.42
2018-11-14T06:01:06.153Z,40.78
2018-11-14T06:01:41.115Z,48.52
2018-11-14T06:02:16.094Z,44.50
2018-11-14T06:02:51.037Z,44.00
2018-11-14T06:03:25.856Z,44.60
2018-11-14T06:04:01.093Z,41.77
2018-11-14T06:04:36.313Z,52.30
2018-11-14T06:05:11.653Z,44.63
2018-11-14T06:05:46.977Z,42.83
2018-11-14T06:06:22.396Z,41.77
2018-11-14T06:06:57.098Z,45.98
2018-11-14T06:07:32.176Z,47.00
2018-11-14T06:08:07.653Z,47.20
2018-11-14T06:08:42.934Z,49.60
2018-11-14T06:09:17.893Z,44.38
2018-11-14T06:09:52.874Z,43.75
2018-11-14T06:10:27.793Z,42.05
2018-11-14T06:11:02.614Z,47.70
2018-11-14T06:11:38.234Z,48.08
2018-11-14T06:12:14.064Z,49.30
2018-11-14T06:12:49.303Z,43.28
2018-11-14T06:14:27.434Z,46.95
2018-11-14T06:15:02.752Z,42.93
2018-11-14T06:15:37.774Z,43.85
2018-11-14T06:16:12.954Z,49.20
2018-11-14T06:16:48.154Z,41.68
2018-11-14T06:17:23.463Z,43.45
2018-11-14T06:17:59.533Z,43.70
2018-11-14T06:18:34.673Z,48.38
2018-11-14T06:19:10.074Z,40.75
2018-11-14T06:19:45.530Z,50.75
2018-11-14T06:20:22.190Z,51.20
2018-11-14T06:20:57.696Z,51.53
2018-11-14T06:21:32.658Z,52.27
2018-11-14T06:22:07.769Z,47.48
2018-11-14T06:22:43.378Z,53.78
2018-11-14T06:23:18.561Z,45.28
2018-11-14T06:23:53.860Z,49.18
2018-11-14T06:24:28.859Z,52.67
2018-11-14T06:25:14.459Z,46.10
2018-11-14T06:25:49.678Z,53.42
2018-11-14T06:26:24.927Z,52.80
2018-11-14T06:27:00.019Z,50.60
2018-11-14T06:27:35.720Z,54.48
2018-11-14T06:28:11.699Z,52.13
2018-11-14T06:28:47.040Z,53.48
2018-11-14T06:29:23.047Z,46.90
2018-11-14T06:29:57.702Z,52.73
2018-11-14T06:30:33.076Z,50.58
2018-11-14T06:31:07.816Z,45.50
2018-11-14T06:31:42.576Z,49.90
2018-11-14T06:32:17.356Z,50.43
2018-11-14T06:32:52.576Z,52.30
2018-11-14T06:33:27.476Z,50.48
2018-11-14T06:55:15.294Z,54.03
2018-11-14T06:55:50.187Z,51.35
2018-11-14T06:56:24.913Z,52.58
2018-11-14T06:56:59.853Z,48.15
2018-11-14T06:57:34.617Z,49.48
2018-11-14T06:58:09.414Z,44.00
2018-11-14T06:58:44.463Z,48.28
2018-11-14T06:59:19.352Z,48.92
2018-11-14T06:59:54.242Z,48.68
2018-11-14T07:00:30.174Z,47.23
2018-11-14T07:01:05.014Z,48.90
2018-11-14T07:01:39.773Z,45.52
2018-11-14T07:02:14.554Z,47.62
2018-11-14T07:02:49.214Z,48.28
2018-11-14T07:03:23.939Z,51.73
2018-11-14T07:03:58.753Z,45.28
2018-11-14T07:04:33.442Z,47.38
2018-11-14T07:05:10.271Z,44.18
2018-11-14T07:05:45.149Z,50.80
2018-11-14T07:06:19.933Z,54.53
2018-11-14T07:06:54.579Z,51.80
2018-11-14T07:07:29.454Z,50.83
2018-11-14T07:08:04.073Z,49.15
2018-11-14T07:08:38.734Z,49.08
2018-11-14T07:09:13.234Z,45.45
2018-11-14T07:09:47.793Z,47.75
2018-11-14T07:10:25.777Z,48.60
2018-11-14T07:11:00.432Z,47.60
2018-11-14T07:11:35.033Z,50.73
2018-11-14T07:12:09.822Z,46.15
2018-11-14T07:12:44.317Z,50.75
2018-11-14T07:13:19.142Z,45.58
2018-11-14T07:13:53.803Z,51.10
2018-11-14T07:14:28.710Z,51.45
2018-11-14T07:15:03.331Z,54.30
2018-11-14T07:15:38.102Z,52.55
2018-11-14T07:16:12.770Z,48.52
2018-11-14T07:16:47.463Z,54.85
2018-11-14T07:17:21.942Z,47.35
2018-11-14T07:17:56.739Z,52.08
2018-11-14T07:18:31.407Z,68.57
2018-11-14T07:19:06.171Z,54.70
2018-11-14T07:19:40.731Z,55.55
2018-11-14T07:20:19.306Z,52.38
2018-11-14T07:20:53.847Z,57.88
2018-11-14T07:21:28.626Z,50.95
2018-11-14T07:22:03.308Z,44.03
2018-11-14T07:22:37.907Z,45.30
2018-11-14T07:23:12.530Z,45.15
2018-11-14T07:23:47.491Z,50.15
2018-11-14T07:24:22.140Z,42.78
2018-11-14T07:24:56.887Z,44.33
2018-11-14T07:25:31.546Z,43.35
2018-11-14T07:26:06.566Z,48.63
2018-11-14T07:26:41.286Z,48.17
2018-11-14T07:27:15.746Z,54.55
2018-11-14T07:27:50.249Z,48.75
2018-11-14T07:28:25.148Z,52.00
2018-11-14T07:29:00.041Z,49.00
2018-11-14T07:29:35.228Z,41.88
2018-11-14T07:30:12.628Z,50.90
2018-11-14T07:30:47.327Z,45.75
2018-11-14T07:31:22.046Z,47.38
2018-11-14T07:31:57.411Z,46.83
2018-11-14T07:32:32.786Z,58.80
2018-11-14T07:33:08.627Z,54.80
2018-11-14T07:33:43.348Z,46.92
2018-11-14T07:34:18.411Z,53.65
2018-11-14T07:34:53.187Z,73.42
2018-11-14T07:35:28.286Z,51.25
2018-11-14T07:36:03.207Z,46.58
2018-11-14T07:36:38.128Z,46.37
2018-11-14T07:37:12.769Z,42.05
2018-11-14T07:38:53.117Z,43.75
2018-11-14T07:39:27.707Z,50.90
2018-11-14T07:40:03.668Z,47.93
2018-11-14T07:40:38.387Z,45.67
2018-11-14T07:41:14.547Z,46.15
2018-11-14T07:41:49.367Z,45.55
2018-11-14T07:42:24.367Z,45.58
2018-11-14T07:42:59.147Z,43.58
2018-11-14T07:43:35.013Z,46.63
2018-11-14T07:44:09.886Z,41.80
2018-11-14T07:44:44.508Z,47.83
2018-11-14T07:45:19.268Z,44.63
2018-11-14T07:45:54.230Z,45.75
2018-11-14T07:46:30.108Z,53.00
2018-11-14T07:47:04.815Z,47.08
2018-11-14T07:47:39.528Z,45.43
2018-11-14T07:48:14.167Z,44.33
2018-11-14T07:48:49.737Z,45.58
2018-11-14T07:49:24.307Z,41.45
2018-11-14T07:49:59.055Z,44.42
2018-11-14T07:50:33.628Z,39.85
2018-11-14T07:51:08.409Z,40.20
2018-11-14T07:51:43.170Z,35.43
2018-11-14T07:52:18.194Z,41.23
2018-11-14T07:52:53.546Z,40.40
2018-11-14T07:53:28.335Z,43.70